Time;durP1;ratioP1;P1;durP2;ratioP2;P2;SDS_P1;SDS_P2;PMS_P1;PMS_P2;Temp;Humidity;BMP_temperature;BMP_pressure;BME280_temperature;BME280_humidity;BME280_pressure;Samples;Min_cycle;Max_cycle;Signal;HPM_P1;HPM_P2
2023/04/15 00:01:53;;;;;;;1.57;0.80;;;;;;;5.17;88.39;95641.66;5049928;28;20210;-58
2023/04/15 00:04:20;;;;;;;3.23;1.57;;;;;;;5.08;89.08;95637.22;5035443;28;20204;-58
2023/04/15 00:06:51;;;;;;;1.07;0.97;;;;;;;5.01;90.69;95640.38;5049705;28;20227;-59
2023/04/15 00:09:18;;;;;;;3.03;1.23;;;;;;;5.00;88.72;95643.13;5053756;28;20210;-59
2023/04/15 00:11:45;;;;;;;0.97;0.70;;;;;;;4.95;90.30;95635.69;5060538;28;20195;-59
2023/04/15 00:14:12;;;;;;;1.47;0.93;;;;;;;4.92;91.80;95635.91;5066659;28;20267;-59
2023/04/15 00:16:38;;;;;;;2.37;1.20;;;;;;;4.86;91.64;95628.59;5059144;28;20200;-58
2023/04/15 00:19:06;;;;;;;2.10;1.23;;;;;;;4.84;93.59;95627.91;5058793;28;20204;-59
2023/04/15 00:21:32;;;;;;;3.03;1.30;;;;;;;4.81;95.03;95633.44;5042927;28;20208;-58
2023/04/15 00:24:00;;;;;;;2.33;1.00;;;;;;;4.84;94.59;95634.94;5040105;28;20211;-57
2023/04/15 00:26:26;;;;;;;3.13;1.87;;;;;;;4.87;92.79;95629.44;5036904;28;20242;-58
2023/04/15 00:28:53;;;;;;;1.70;1.57;;;;;;;4.85;92.79;95628.75;5036090;28;20207;-58
2023/04/15 00:31:19;;;;;;;3.47;1.47;;;;;;;4.90;92.54;95623.94;5036026;28;20287;-57
2023/04/15 00:33:46;;;;;;;2.83;1.60;;;;;;;4.87;93.60;95625.03;5035542;28;20235;-59
2023/04/15 00:36:14;;;;;;;1.30;1.20;;;;;;;4.90;93.90;95631.78;5035951;28;20231;-58
2023/04/15 00:38:40;;;;;;;3.40;2.07;;;;;;;4.91;93.34;95621.19;5035924;28;20219;-59
2023/04/15 00:41:07;;;;;;;2.27;1.80;;;;;;;4.99;94.02;95615.28;5035543;28;20207;-59
2023/04/15 00:43:34;;;;;;;2.97;2.37;;;;;;;4.98;95.25;95611.00;5035672;28;20215;-58
2023/04/15 00:46:02;;;;;;;3.67;2.63;;;;;;;4.95;95.74;95609.47;5051409;28;20560;-57
2023/04/15 00:48:29;;;;;;;4.63;2.77;;;;;;;4.96;98.47;95611.13;5035329;28;20222;-59
2023/04/15 00:50:55;;;;;;;4.37;3.37;;;;;;;5.05;97.02;95619.97;5036153;28;20548;-59
2023/04/15 00:53:23;;;;;;;2.63;2.40;;;;;;;5.12;96.65;95615.84;5036226;28;20242;-59
2023/04/15 00:55:50;;;;;;;2.47;2.20;;;;;;;5.20;95.73;95626.50;5048431;28;20571;-58
2023/04/15 00:58:17;;;;;;;2.67;1.83;;;;;;;5.23;94.14;95620.16;5048997;28;20577;-58
2023/04/15 01:00:43;;;;;;;2.23;0.93;;;;;;;5.31;94.09;95618.53;5042579;28;20294;-58
2023/04/15 01:03:10;;;;;;;2.53;1.47;;;;;;;5.31;93.92;95628.19;5040583;28;20212;-58
2023/04/15 01:05:37;;;;;;;1.73;1.30;;;;;;;5.33;96.29;95619.19;5035207;28;20283;-58
2023/04/15 01:08:03;;;;;;;1.27;1.00;;;;;;;5.36;96.63;95620.72;5044292;28;20241;-58
2023/04/15 01:10:32;;;;;;;2.57;1.27;;;;;;;5.38;98.37;95613.56;5035018;28;20695;-58
2023/04/15 01:12:58;;;;;;;1.87;1.50;;;;;;;5.46;99.88;95624.16;5036175;28;20207;-58
2023/04/15 01:15:25;;;;;;;2.20;1.73;;;;;;;5.49;99.79;95621.31;5054722;28;20206;-58
2023/04/15 01:17:51;;;;;;;1.93;1.50;;;;;;;5.49;100.00;95629.16;5039057;28;20242;-59
2023/04/15 01:20:19;;;;;;;3.93;1.83;;;;;;;5.56;100.00;95637.31;5034900;28;20561;-58
2023/04/15 01:22:45;;;;;;;2.23;1.70;;;;;;;5.57;99.75;95629.28;5038699;28;20608;-59
2023/04/15 01:25:13;;;;;;;4.37;2.17;;;;;;;5.67;98.38;95627.50;5034584;28;20648;-59
2023/04/15 01:27:41;;;;;;;5.23;2.20;;;;;;;5.64;99.02;95630.41;5036681;28;20314;-59
2023/04/15 01:30:09;;;;;;;2.83;2.03;;;;;;;5.68;99.25;95630.94;5044151;28;20214;-59
2023/04/15 01:32:35;;;;;;;2.70;2.10;;;;;;;5.69;99.40;95636.06;5038569;28;20216;-59
2023/04/15 01:35:02;;;;;;;2.77;2.43;;;;;;;5.77;98.29;95633.59;5034189;28;20243;-58
2023/04/15 01:37:29;;;;;;;2.80;2.10;;;;;;;5.80;100.00;95641.19;5047726;28;20212;-59
2023/04/15 01:39:56;;;;;;;1.90;1.80;;;;;;;5.81;100.00;95640.19;5034992;28;20207;-59
2023/04/15 01:42:22;;;;;;;2.93;2.37;;;;;;;5.82;99.90;95641.84;5038115;28;20277;-59
2023/04/15 01:44:50;;;;;;;3.17;2.33;;;;;;;5.88;100.00;95645.78;5053275;28;20207;-59
2023/04/15 01:47:17;;;;;;;1.90;1.80;;;;;;;5.89;99.95;95642.16;5044578;28;20265;-58
2023/04/15 01:49:44;;;;;;;2.73;2.13;;;;;;;5.91;100.00;95629.75;5045319;28;20214;-58
2023/04/15 01:52:10;;;;;;;2.63;2.43;;;;;;;5.95;100.00;95641.63;5034644;28;20218;-58
2023/04/15 01:54:36;;;;;;;2.50;2.30;;;;;;;5.97;100.00;95640.50;5034869;28;20219;-58
2023/04/15 01:57:04;;;;;;;2.83;1.97;;;;;;;6.00;99.45;95642.84;5034582;28;20204;-59
2023/04/15 01:59:30;;;;;;;3.43;1.90;;;;;;;5.99;98.07;95643.81;5045508;28;20294;-59
2023/04/15 02:01:58;;;;;;;2.87;2.23;;;;;;;6.02;98.32;95639.28;5048938;28;20254;-59
2023/04/15 02:04:25;;;;;;;3.57;2.20;;;;;;;6.05;100.00;95636.34;5034376;28;20284;-59
2023/04/15 02:06:52;;;;;;;3.47;2.20;;;;;;;6.05;98.80;95631.09;5035161;28;20259;-59
2023/04/15 02:09:18;;;;;;;2.57;2.30;;;;;;;6.12;97.06;95640.91;5042995;28;20215;-58
2023/04/15 02:11:45;;;;;;;2.30;1.93;;;;;;;6.07;96.78;95640.50;5039057;28;20206;-58
2023/04/15 02:14:12;;;;;;;3.17;2.10;;;;;;;6.06;100.00;95633.56;5042652;28;20628;-59
2023/04/15 02:16:39;;;;;;;2.50;2.30;;;;;;;6.06;100.00;95644.06;5047410;28;20544;-58
2023/04/15 02:19:07;;;;;;;4.13;3.53;;;;;;;6.10;100.00;95634.97;5045698;28;20210;-59
2023/04/15 02:21:34;;;;;;;3.50;3.20;;;;;;;6.09;100.00;95643.00;5054103;28;20231;-58
2023/04/15 02:24:01;;;;;;;5.20;3.40;;;;;;;6.11;100.00;95646.28;5054029;28;20211;-58
2023/04/15 02:26:30;;;;;;;4.30;3.33;;;;;;;6.10;100.00;95645.44;5042122;28;20219;-58
2023/04/15 02:28:57;;;;;;;3.57;2.70;;;;;;;6.14;100.00;95640.75;5043109;28;20640;-58
2023/04/15 02:31:24;;;;;;;3.70;3.30;;;;;;;6.17;100.00;95636.06;5037712;28;20633;-59
2023/04/15 02:33:51;;;;;;;4.83;4.07;;;;;;;6.17;99.37;95632.59;5050734;28;20325;-58
2023/04/15 02:36:20;;;;;;;5.13;3.63;;;;;;;6.16;99.22;95634.41;5044979;28;20195;-60
2023/04/15 02:38:46;;;;;;;4.00;3.60;;;;;;;6.18;100.00;95632.47;5043490;28;20207;-59
2023/04/15 02:41:14;;;;;;;4.67;4.00;;;;;;;6.22;100.00;95638.25;5037895;28;20555;-58
2023/04/15 02:43:40;;;;;;;4.17;3.77;;;;;;;6.27;99.99;95646.56;5037664;28;20207;-60
2023/04/15 02:46:07;;;;;;;2.60;2.40;;;;;;;6.23;96.62;95639.94;5060230;28;20199;-58
2023/04/15 02:48:33;;;;;;;2.73;2.30;;;;;;;6.23;98.07;95637.31;5042874;28;20218;-58
2023/04/15 02:51:13;;;;;;;2.40;2.20;;;;;;;6.25;97.92;95638.81;5055010;28;20223;-60
2023/04/15 02:53:41;;;;;;;3.53;2.23;;;;;;;6.24;97.93;95637.16;5051057;28;20227;-58
2023/04/15 02:56:08;;;;;;;3.10;2.47;;;;;;;6.23;99.46;95632.88;5037473;28;20266;-59
2023/04/15 02:58:35;;;;;;;3.90;3.30;;;;;;;6.24;98.93;95631.91;5037485;28;20208;-59
2023/04/15 03:01:02;;;;;;;3.60;2.90;;;;;;;6.29;98.31;95634.94;5047957;28;20624;-57
2023/04/15 03:03:28;;;;;;;2.73;2.20;;;;;;;6.31;97.07;95642.66;5040178;28;20654;-58
2023/04/15 03:05:54;;;;;;;4.40;2.20;;;;;;;6.27;96.60;95643.94;5037391;28;20214;-59
2023/04/15 03:08:21;;;;;;;3.13;2.10;;;;;;;6.25;96.88;95640.59;5050459;28;20232;-59
2023/04/15 03:10:51;;;;;;;3.23;2.47;;;;;;;6.27;98.58;95638.69;5037291;28;20208;-59
2023/04/15 03:13:17;;;;;;;2.60;1.97;;;;;;;6.28;99.21;95635.06;5040423;28;20206;-58
2023/04/15 03:15:44;;;;;;;6.83;1.97;;;;;;;6.35;98.25;95638.78;5046667;28;20652;-59
2023/04/15 03:18:10;;;;;;;2.57;2.00;;;;;;;6.38;99.64;95634.06;5049705;28;20218;-59
2023/04/15 03:20:36;;;;;;;2.07;1.87;;;;;;;6.34;99.00;95631.91;5037212;28;20214;-58
2023/04/15 03:23:03;;;;;;;1.80;1.60;;;;;;;6.35;96.92;95630.91;5040695;28;20234;-58
2023/04/15 03:25:29;;;;;;;3.00;1.93;;;;;;;6.32;98.05;95639.91;5037496;28;20635;-59
2023/04/15 03:27:57;;;;;;;2.30;2.10;;;;;;;6.35;97.82;95633.53;5036700;28;20224;-59
2023/04/15 03:30:24;;;;;;;3.20;1.80;;;;;;;6.34;100.00;95629.28;5036718;28;20207;-59
2023/04/15 03:32:50;;;;;;;2.60;2.40;;;;;;;6.34;100.00;95634.53;5036567;28;20211;-59
2023/04/15 03:35:17;;;;;;;6.33;2.20;;;;;;;6.37;100.00;95634.22;5047970;28;20242;-59
2023/04/15 03:37:43;;;;;;;2.60;1.87;;;;;;;6.39;100.00;95634.91;5038562;28;20226;-59
2023/04/15 03:40:11;;;;;;;2.63;1.97;;;;;;;6.39;100.00;95622.59;5035462;28;20208;-58
2023/04/15 03:42:37;;;;;;;4.53;2.10;;;;;;;6.40;100.00;95623.44;5036714;28;20227;-59
2023/04/15 03:45:07;;;;;;;3.20;1.80;;;;;;;6.43;100.00;95631.88;5049895;28;20202;-58
2023/04/15 03:47:33;;;;;;;5.00;2.00;;;;;;;6.41;99.66;95622.47;5044272;28;20296;-59
2023/04/15 03:50:00;;;;;;;2.93;2.23;;;;;;;6.43;99.90;95629.22;5044935;28;20227;-59
2023/04/15 03:52:26;;;;;;;2.10;1.87;;;;;;;6.39;100.00;95614.72;5046065;28;20217;-59
2023/04/15 03:54:53;;;;;;;2.30;2.17;;;;;;;6.40;100.00;95618.19;5049077;28;20547;-59
2023/04/15 03:57:19;;;;;;;2.13;1.90;;;;;;;6.43;99.47;95621.34;5036492;28;20532;-58
2023/04/15 03:59:46;;;;;;;3.47;1.97;;;;;;;6.43;98.55;95620.53;5048470;28;20229;-58
2023/04/15 04:02:13;;;;;;;2.40;2.07;;;;;;;6.40;99.39;95626.91;5050692;28;20204;-59
2023/04/15 04:04:40;;;;;;;3.90;2.17;;;;;;;6.45;99.18;95623.81;5036025;28;20211;-58
2023/04/15 04:07:06;;;;;;;4.13;2.13;;;;;;;6.44;97.26;95624.81;5052110;28;20232;-59
2023/04/15 04:09:33;;;;;;;2.57;1.63;;;;;;;6.46;97.35;95630.75;5045284;28;20233;-59
2023/04/15 04:12:00;;;;;;;4.40;2.00;;;;;;;6.48;96.65;95626.19;5042056;28;20207;-59
2023/04/15 04:14:28;;;;;;;2.00;1.50;;;;;;;6.44;96.74;95628.28;5055299;28;20207;-59
2023/04/15 04:16:55;;;;;;;1.73;1.60;;;;;;;6.44;98.26;95632.69;5059313;28;20639;-59
2023/04/15 04:19:23;;;;;;;1.17;1.17;;;;;;;6.44;97.85;95627.44;5043524;28;20207;-59
2023/04/15 04:21:49;;;;;;;1.67;1.40;;;;;;;6.49;100.00;95635.69;5045563;28;20240;-58
2023/04/15 04:24:16;;;;;;;4.07;2.03;;;;;;;6.48;100.00;95629.63;5040388;28;20609;-59
2023/04/15 04:26:42;;;;;;;4.17;2.70;;;;;;;6.50;98.25;95630.31;5037151;28;20235;-59
2023/04/15 04:29:09;;;;;;;3.57;2.03;;;;;;;6.47;100.00;95632.41;5035459;28;20227;-59
2023/04/15 04:31:35;;;;;;;3.00;2.17;;;;;;;6.50;99.86;95634.75;5044033;28;20207;-60
2023/04/15 04:34:02;;;;;;;2.33;1.30;;;;;;;6.56;97.15;95647.28;5055270;28;20334;-59
2023/04/15 04:36:30;;;;;;;1.83;1.40;;;;;;;6.51;98.00;95639.03;5047036;28;20219;-59
2023/04/15 04:38:56;;;;;;;1.90;1.30;;;;;;;6.45;96.98;95637.78;5035579;28;20207;-59
2023/04/15 04:41:23;;;;;;;2.73;1.60;;;;;;;6.44;98.31;95637.94;5036124;28;20219;-59
2023/04/15 04:43:49;;;;;;;1.43;1.33;;;;;;;6.42;99.17;95632.81;5035834;28;20207;-58
2023/04/15 04:46:16;;;;;;;3.60;1.63;;;;;;;6.46;100.00;95636.00;5050630;28;20277;-60
2023/04/15 04:48:42;;;;;;;3.03;1.30;;;;;;;6.45;100.00;95637.78;5035259;28;20568;-59
2023/04/15 04:51:09;;;;;;;2.30;1.63;;;;;;;6.54;100.00;95633.50;5035437;28;20211;-59
2023/04/15 04:53:37;;;;;;;1.83;1.20;;;;;;;6.54;99.46;95637.91;5038220;28;20591;-59
2023/04/15 04:56:03;;;;;;;2.63;1.10;;;;;;;6.51;99.03;95631.16;5046571;28;20235;-60
2023/04/15 04:58:30;;;;;;;1.33;1.07;;;;;;;6.48;100.00;95639.31;5050899;28;20647;-59
2023/04/15 05:00:58;;;;;;;2.40;1.30;;;;;;;6.54;100.00;95637.91;5054681;28;20635;-59
2023/04/15 05:03:24;;;;;;;2.60;1.20;;;;;;;6.54;99.36;95646.63;5054786;28;20237;-59
2023/04/15 05:05:51;;;;;;;1.80;1.70;;;;;;;6.57;99.31;95643.69;5055059;28;20206;-59
2023/04/15 05:08:17;;;;;;;1.80;1.70;;;;;;;6.61;99.02;95642.44;5054509;28;20218;-58
2023/04/15 05:10:45;;;;;;;2.90;1.37;;;;;;;6.61;99.99;95650.34;5054710;28;20651;-58
2023/04/15 05:13:12;;;;;;;2.97;1.23;;;;;;;6.67;99.90;95648.91;5054848;28;20600;-59
2023/04/15 05:15:40;;;;;;;1.70;1.50;;;;;;;6.65;100.00;95651.72;5054627;28;20257;-59
2023/04/15 05:18:06;;;;;;;3.00;1.50;;;;;;;6.70;98.98;95654.72;5052280;28;20317;-58
2023/04/15 05:20:33;;;;;;;2.07;1.33;;;;;;;6.74;98.49;95660.50;5046096;28;20210;-58
2023/04/15 05:22:59;;;;;;;1.53;1.10;;;;;;;6.73;99.26;95659.69;5054811;28;20203;-60
2023/04/15 05:25:25;;;;;;;1.90;1.00;;;;;;;6.76;99.18;95659.41;5043757;28;20208;-59
2023/04/15 05:27:53;;;;;;;3.67;1.30;;;;;;;6.84;97.86;95662.13;5034664;28;20242;-59
2023/04/15 05:30:21;;;;;;;1.40;1.30;;;;;;;6.88;97.85;95666.13;5045759;28;20203;-59
2023/04/15 05:32:47;;;;;;;1.87;1.23;;;;;;;6.90;97.75;95661.56;5037010;28;20235;-59
2023/04/15 05:35:13;;;;;;;1.67;1.57;;;;;;;6.89;98.22;95661.72;5034214;28;20301;-59
2023/04/15 05:37:40;;;;;;;2.70;1.50;;;;;;;6.95;98.49;95664.56;5034791;28;20215;-59
2023/04/15 05:40:09;;;;;;;1.87;1.67;;;;;;;6.99;99.10;95667.75;5034767;28;20215;-59
2023/04/15 05:42:35;;;;;;;2.03;1.73;;;;;;;7.05;100.00;95669.00;5047737;28;20628;-59
2023/04/15 05:45:07;;;;;;;1.53;1.43;;;;;;;7.10;100.00;95664.09;5047169;28;20213;-59
2023/04/15 05:47:34;;;;;;;1.93;1.20;;;;;;;7.16;97.32;95666.13;5050337;28;20220;-59
2023/04/15 05:50:01;;;;;;;2.70;1.93;;;;;;;7.23;96.58;95667.22;5038592;28;20203;-59
2023/04/15 05:52:27;;;;;;;2.17;1.73;;;;;;;7.29;93.51;95667.47;5056624;28;20215;-59
2023/04/15 05:54:54;;;;;;;2.10;1.67;;;;;;;7.31;91.23;95664.69;5057464;28;20207;-59
2023/04/15 05:57:20;;;;;;;2.00;1.80;;;;;;;7.39;90.60;95664.78;5057679;28;20188;-58
2023/04/15 05:59:47;;;;;;;4.17;1.80;;;;;;;7.51;90.72;95666.22;5068822;28;20217;-59
2023/04/15 06:02:15;;;;;;;2.30;1.83;;;;;;;7.56;87.17;95666.63;5054198;28;20199;-59
2023/04/15 06:04:41;;;;;;;3.23;1.73;;;;;;;7.70;87.41;95660.00;5059106;28;20206;-58
2023/04/15 06:07:08;;;;;;;2.53;1.90;;;;;;;7.77;85.76;95664.53;5042358;28;20239;-58
2023/04/15 06:09:35;;;;;;;2.33;1.90;;;;;;;7.85;86.40;95664.63;5046054;28;20226;-59
2023/04/15 06:12:01;;;;;;;2.10;1.63;;;;;;;8.04;86.07;95668.06;5038978;28;20218;-59
2023/04/15 06:14:28;;;;;;;3.23;1.77;;;;;;;8.20;82.72;95670.84;5051390;28;20203;-58
2023/04/15 06:16:55;;;;;;;4.00;2.33;;;;;;;8.41;81.30;95671.34;5038951;28;20226;-59
2023/04/15 06:19:23;;;;;;;2.23;2.03;;;;;;;8.55;83.40;95662.91;5039593;28;20208;-59
2023/04/15 06:21:50;;;;;;;2.27;1.90;;;;;;;8.65;81.64;95666.25;5049841;28;20211;-59
2023/04/15 06:24:17;;;;;;;3.57;1.93;;;;;;;8.74;80.85;95662.72;5041682;28;20208;-59
2023/04/15 06:26:43;;;;;;;4.37;2.13;;;;;;;8.75;80.34;95659.06;5046909;28;20535;-58
2023/04/15 06:29:09;;;;;;;3.90;2.20;;;;;;;8.91;79.26;95658.34;5042617;28;20538;-59
2023/04/15 06:31:36;;;;;;;4.83;2.27;;;;;;;9.00;77.95;95663.50;5037908;28;20211;-59
2023/04/15 06:34:02;;;;;;;2.60;2.23;;;;;;;9.16;78.51;95661.94;5050810;28;20234;-60
2023/04/15 06:36:31;;;;;;;4.23;2.20;;;;;;;9.28;78.11;95665.94;5046565;28;20211;-59
2023/04/15 06:38:57;;;;;;;3.90;1.80;;;;;;;9.38;75.15;95666.63;5044375;28;20219;-60
2023/04/15 06:41:24;;;;;;;2.13;1.93;;;;;;;9.25;75.30;95660.97;5050037;28;20517;-60
2023/04/15 06:43:50;;;;;;;3.53;2.10;;;;;;;9.32;76.17;95667.25;5039108;28;20203;-59
2023/04/15 06:46:17;;;;;;;3.20;1.73;;;;;;;9.22;75.85;95670.03;5054279;28;20230;-59
2023/04/15 06:48:43;;;;;;;2.83;1.90;;;;;;;9.29;78.97;95673.69;5039771;28;20560;-59
2023/04/15 06:51:10;;;;;;;4.63;1.97;;;;;;;9.38;78.41;95672.75;5049269;28;20243;-59
2023/04/15 06:53:39;;;;;;;2.10;1.67;;;;;;;9.47;77.47;95673.59;5037739;28;20214;-59
2023/04/15 06:56:07;;;;;;;2.67;1.97;;;;;;;9.36;75.51;95673.88;5047591;28;20294;-59
2023/04/15 06:58:34;;;;;;;2.17;1.87;;;;;;;9.35;79.37;95675.69;5041055;28;20203;-59
2023/04/15 07:01:00;;;;;;;2.23;1.90;;;;;;;9.41;79.49;95679.50;5047188;28;20206;-59
2023/04/15 07:03:27;;;;;;;2.27;1.87;;;;;;;9.37;80.99;95670.25;5052465;28;20624;-58
2023/04/15 07:05:53;;;;;;;4.97;2.07;;;;;;;9.42;80.73;95670.63;5038101;28;20208;-58
2023/04/15 07:08:19;;;;;;;2.10;1.90;;;;;;;9.52;79.56;95663.38;5046987;28;20219;-58
2023/04/15 07:10:47;;;;;;;3.43;2.00;;;;;;;9.62;80.43;95671.16;5037510;28;20690;-59
2023/04/15 07:13:14;;;;;;;3.30;1.83;;;;;;;9.68;82.23;95665.22;5040628;28;20225;-60
2023/04/15 07:15:40;;;;;;;2.17;1.90;;;;;;;9.75;80.46;95669.72;5057607;28;20531;-58
2023/04/15 07:18:07;;;;;;;2.77;1.90;;;;;;;9.75;78.98;95659.16;5056860;28;20265;-59
2023/04/15 07:20:33;;;;;;;2.13;1.83;;;;;;;9.87;82.34;95660.50;5057284;28;20211;-59
2023/04/15 07:22:59;;;;;;;4.03;2.27;;;;;;;9.95;79.83;95665.78;5057226;28;20207;-59
2023/04/15 07:25:26;;;;;;;3.07;2.17;;;;;;;10.14;80.14;95661.19;5045902;28;20564;-59
2023/04/15 07:27:55;;;;;;;3.47;1.90;;;;;;;10.17;79.06;95668.81;5041963;28;20223;-60
2023/04/15 07:30:22;;;;;;;3.50;2.00;;;;;;;10.13;80.31;95662.19;5056667;28;20635;-59
2023/04/15 07:32:48;;;;;;;4.20;1.93;;;;;;;10.33;81.20;95658.25;5038451;28;20207;-59
2023/04/15 07:35:15;;;;;;;3.43;2.00;;;;;;;10.35;80.53;95650.97;5036485;28;20792;-59
2023/04/15 07:37:43;;;;;;;4.17;1.73;;;;;;;10.36;80.40;95658.75;5041905;28;20663;-59
2023/04/15 07:40:10;;;;;;;4.83;2.20;;;;;;;10.44;81.40;95660.56;5056961;28;20207;-58
2023/04/15 07:42:37;;;;;;;3.03;1.90;;;;;;;10.63;79.43;95649.63;5056583;28;20203;-59
2023/04/15 07:45:06;;;;;;;1.60;1.50;;;;;;;10.67;76.13;95653.59;5056493;28;20210;-59
2023/04/15 07:47:32;;;;;;;2.00;1.80;;;;;;;10.60;76.35;95654.44;5051114;28;20640;-58
2023/04/15 07:49:59;;;;;;;3.03;1.73;;;;;;;10.57;76.62;95650.31;5036838;28;20517;-59
2023/04/15 07:52:26;;;;;;;4.63;2.30;;;;;;;10.41;77.67;95652.97;5055717;28;20207;-59
2023/04/15 07:54:52;;;;;;;2.87;1.70;;;;;;;10.58;80.09;95651.97;5056046;28;20210;-59
2023/04/15 07:57:22;;;;;;;3.27;1.70;;;;;;;10.69;76.62;95654.25;5056567;28;20232;-58
2023/04/15 07:59:49;;;;;;;2.57;1.60;;;;;;;10.69;76.53;95648.97;5056413;28;20202;-59
2023/04/15 08:02:17;;;;;;;3.90;2.20;;;;;;;10.57;76.87;95650.31;5056117;28;20239;-59
2023/04/15 08:04:43;;;;;;;2.23;1.70;;;;;;;10.57;77.80;95652.94;5055973;28;20207;-60
2023/04/15 08:07:10;;;;;;;2.20;1.57;;;;;;;10.61;78.99;95648.16;5056326;28;20542;-59
2023/04/15 08:09:36;;;;;;;1.97;1.83;;;;;;;10.68;78.65;95647.31;5056039;28;20598;-59
2023/04/15 08:12:03;;;;;;;2.60;2.20;;;;;;;10.81;80.01;95646.78;5059373;28;20207;-60
2023/04/15 08:14:32;;;;;;;3.43;2.33;;;;;;;11.02;79.72;95648.91;5060917;28;20284;-59
2023/04/15 08:16:58;;;;;;;2.93;2.00;;;;;;;11.18;77.83;95643.56;5058475;28;20624;-58
2023/04/15 08:19:26;;;;;;;2.00;1.73;;;;;;;11.32;77.51;95640.19;5044566;28;20211;-60
2023/04/15 08:21:53;;;;;;;2.90;1.70;;;;;;;11.32;76.02;95645.47;5047475;28;20207;-59
2023/04/15 08:24:19;;;;;;;3.93;2.30;;;;;;;11.32;75.43;95648.97;5039758;28;20251;-60
2023/04/15 08:26:46;;;;;;;3.47;2.30;;;;;;;11.43;77.46;95653.88;5035328;28;20250;-59
2023/04/15 08:29:13;;;;;;;6.33;2.47;;;;;;;11.41;77.25;95649.72;5049080;28;20314;-60
2023/04/15 08:31:39;;;;;;;2.43;1.80;;;;;;;11.39;75.08;95654.38;5037895;28;20212;-59
2023/04/15 08:34:06;;;;;;;3.27;1.40;;;;;;;11.48;69.72;95656.81;5053195;28;20227;-59
2023/04/15 08:36:34;;;;;;;2.10;1.10;;;;;;;11.52;67.17;95654.66;5048496;28;20211;-59
2023/04/15 08:39:01;;;;;;;4.13;1.23;;;;;;;11.57;65.38;95652.31;5035453;28;20208;-59
2023/04/15 08:41:34;;;;;;;1.70;1.17;;;;;;;11.46;66.60;95642.13;5035604;28;20546;-59
2023/04/15 08:44:02;;;;;;;1.50;1.10;;;;;;;11.45;67.21;95651.88;5049265;28;20204;-59
2023/04/15 08:46:32;;;;;;;7.50;2.00;;;;;;;11.29;71.92;95656.41;5051326;28;20686;-59
2023/04/15 08:49:00;;;;;;;2.50;2.27;;;;;;;11.31;73.65;95655.25;5048792;28;20258;-59
2023/04/15 08:51:27;;;;;;;5.20;2.60;;;;;;;11.21;74.52;95653.78;5046673;28;20246;-59
2023/04/15 08:53:55;;;;;;;1.97;1.87;;;;;;;11.18;77.89;95659.44;5050914;28;20338;-59
2023/04/15 08:56:24;;;;;;;2.20;2.00;;;;;;;11.26;76.86;95656.75;5035163;28;20714;-59
2023/04/15 08:58:51;;;;;;;3.50;2.50;;;;;;;11.19;76.42;95659.28;5035343;28;20261;-60
2023/04/15 09:01:18;;;;;;;3.50;2.27;;;;;;;11.10;77.39;95657.63;5047816;28;20214;-59
2023/04/15 09:03:45;;;;;;;2.70;2.10;;;;;;;10.95;74.97;95665.44;5049051;28;20203;-60
2023/04/15 09:06:11;;;;;;;3.90;2.40;;;;;;;10.93;76.01;95672.72;5035580;28;20215;-58
2023/04/15 09:08:38;;;;;;;3.17;2.33;;;;;;;11.02;74.89;95670.88;5046487;28;20576;-60
2023/04/15 09:11:06;;;;;;;4.37;2.20;;;;;;;10.94;76.39;95677.03;5036873;28;20212;-59
2023/04/15 09:13:32;;;;;;;2.77;1.93;;;;;;;10.98;75.55;95670.38;5036237;28;20334;-59
2023/04/15 09:15:59;;;;;;;2.77;2.10;;;;;;;11.07;76.40;95676.50;5036200;28;20211;-59
2023/04/15 09:18:29;;;;;;;2.30;2.10;;;;;;;10.94;76.41;95679.69;5039752;28;20606;-59
2023/04/15 09:20:56;;;;;;;2.10;2.00;;;;;;;10.93;75.02;95682.47;5040195;28;20671;-59
2023/04/15 09:23:23;;;;;;;3.03;2.00;;;;;;;10.94;76.33;95684.97;5038969;28;20212;-59
2023/04/15 09:25:49;;;;;;;2.67;2.00;;;;;;;11.06;77.72;95692.53;5049030;28;20211;-59
2023/04/15 09:28:24;;;;;;;2.80;1.90;;;;;;;11.15;81.96;95688.88;5054521;28;20250;-61
2023/04/15 09:30:51;;;;;;;2.33;1.70;;;;;;;10.84;77.82;95692.22;5054540;28;20554;-58
2023/04/15 09:33:18;;;;;;;4.40;2.27;;;;;;;11.03;79.39;95692.88;5053648;28;20570;-59
2023/04/15 09:35:56;;;;;;;3.37;1.90;;;;;;;11.08;79.39;95695.84;5054460;28;20215;-60
2023/04/15 09:38:23;;;;;;;2.80;1.80;;;;;;;10.96;78.85;95698.84;5048178;28;20231;-59
2023/04/15 09:40:49;;;;;;;2.37;1.73;;;;;;;10.97;77.93;95703.13;5052906;28;20211;-59
2023/04/15 09:43:17;;;;;;;2.90;1.83;;;;;;;11.19;79.84;95703.44;5054653;28;20212;-59
2023/04/15 09:45:48;;;;;;;4.07;2.20;;;;;;;11.32;78.46;95696.59;5061557;28;20646;-60
2023/04/15 09:48:17;;;;;;;2.77;2.00;;;;;;;11.39;81.03;95699.38;5054580;28;20207;-59
2023/04/15 09:50:44;;;;;;;2.93;2.17;;;;;;;11.35;78.05;95700.72;5055076;28;20219;-60
2023/04/15 09:53:10;;;;;;;2.43;1.70;;;;;;;11.38;77.68;95703.00;5052970;28;20218;-60
2023/04/15 09:55:37;;;;;;;2.27;2.00;;;;;;;11.45;82.30;95709.28;5054543;28;20210;-59
2023/04/15 09:58:08;;;;;;;2.53;1.83;;;;;;;11.37;78.26;95711.97;5054660;28;20631;-60
2023/04/15 10:00:37;;;;;;;2.83;2.07;;;;;;;11.47;79.47;95712.59;5052272;28;20206;-59
2023/04/15 10:03:06;;;;;;;2.77;1.97;;;;;;;11.47;79.53;95717.91;5053516;28;20225;-59
2023/04/15 10:05:32;;;;;;;3.57;2.00;;;;;;;11.31;80.14;95717.94;5050349;28;20217;-59
2023/04/15 10:07:59;;;;;;;2.43;2.00;;;;;;;11.40;83.84;95716.94;5054301;28;20214;-59
2023/04/15 10:10:26;;;;;;;5.20;2.43;;;;;;;11.37;79.79;95722.56;5054450;28;20262;-59
2023/04/15 10:12:54;;;;;;;2.50;2.30;;;;;;;11.39;78.14;95731.97;5054292;28;20234;-59
2023/04/15 10:15:21;;;;;;;2.80;1.70;;;;;;;11.42;77.38;95720.22;5049014;28;20284;-59
2023/04/15 10:17:50;;;;;;;3.80;2.07;;;;;;;11.32;73.48;95730.19;5048281;28;20207;-58
2023/04/15 10:20:20;;;;;;;4.27;1.70;;;;;;;11.36;76.79;95731.50;5035042;28;20284;-59
2023/04/15 10:22:46;;;;;;;4.57;2.80;;;;;;;11.30;77.93;95732.97;5047584;28;20242;-59
2023/04/15 10:25:15;;;;;;;2.87;1.40;;;;;;;11.32;78.76;95730.19;5034495;28;20222;-58
2023/04/15 10:27:42;;;;;;;3.77;3.47;;;;;;;11.32;83.34;95728.34;5037543;28;20598;-59
2023/04/15 10:30:09;;;;;;;2.47;1.47;;;;;;;11.29;76.00;95735.81;5054277;28;20223;-59
2023/04/15 10:32:36;;;;;;;3.40;1.47;;;;;;;11.33;75.67;95732.66;5037704;28;20208;-58
2023/04/15 10:35:05;;;;;;;2.07;1.40;;;;;;;11.30;82.47;95732.97;5033711;28;20267;-59
2023/04/15 10:37:36;;;;;;;3.57;1.60;;;;;;;11.27;81.88;95743.06;5051189;28;20261;-58
2023/04/15 10:40:24;;;;;;;2.03;1.50;;;;;;;11.40;76.56;95738.09;5043509;28;20246;-60
2023/04/15 10:42:50;;;;;;;2.30;1.30;;;;;;;11.55;75.45;95738.22;5033995;28;20225;-59
2023/04/15 10:45:18;;;;;;;1.87;1.50;;;;;;;11.60;77.68;95742.00;5047376;28;20670;-60
2023/04/15 10:47:45;;;;;;;2.23;1.27;;;;;;;11.71;75.47;95741.66;5041746;28;20205;-59
2023/04/15 10:50:13;;;;;;;1.83;1.47;;;;;;;11.84;71.42;95743.75;5042480;28;20227;-59
2023/04/15 10:52:41;;;;;;;2.53;1.23;;;;;;;11.98;72.03;95738.53;5037649;28;20640;-59
2023/04/15 10:55:14;;;;;;;2.30;1.10;;;;;;;12.06;73.12;95739.50;5039192;28;20716;-59
2023/04/15 10:57:41;;;;;;;1.83;1.17;;;;;;;12.17;74.64;95742.59;5057643;28;20194;-59
2023/04/15 11:00:13;;;;;;;1.27;1.13;;;;;;;12.28;71.47;95744.00;5043351;28;20231;-60
2023/04/15 11:02:45;;;;;;;2.07;1.20;;;;;;;12.19;73.01;95755.66;5056235;28;20215;-59
2023/04/15 11:05:13;;;;;;;3.10;1.50;;;;;;;12.17;75.70;95753.19;5053064;28;20203;-59
2023/04/15 11:07:47;;;;;;;3.73;1.40;;;;;;;12.20;74.50;95757.31;5044772;28;20210;-59
2023/04/15 11:10:51;;;;;;;2.23;1.40;;;;;;;12.32;73.50;95756.75;5037679;28;20667;-58
2023/04/15 11:13:20;;;;;;;3.30;1.93;;;;;;;12.26;75.85;95761.91;5041939;28;20241;-59
2023/04/15 11:15:47;;;;;;;2.20;1.37;;;;;;;12.24;74.54;95764.75;5045807;28;20542;-59
2023/04/15 11:18:15;;;;;;;5.07;1.73;;;;;;;12.27;74.32;95766.22;5050019;28;20207;-59
2023/04/15 11:20:44;;;;;;;2.83;1.60;;;;;;;12.32;75.63;95775.31;5049797;28;20199;-59
2023/04/15 11:23:11;;;;;;;2.77;1.90;;;;;;;12.37;74.17;95769.47;5051112;28;20632;-59
2023/04/15 11:25:38;;;;;;;2.27;1.40;;;;;;;12.26;72.39;95780.47;5037104;28;20207;-59
2023/04/15 11:28:04;;;;;;;4.20;1.70;;;;;;;12.33;71.57;95789.38;5056226;28;20652;-60
2023/04/15 11:30:32;;;;;;;2.33;1.50;;;;;;;12.23;72.32;95788.75;5043961;28;20676;-59
2023/04/15 11:33:01;;;;;;;3.13;1.57;;;;;;;12.24;72.01;95790.41;5036896;28;20207;-60
2023/04/15 11:35:27;;;;;;;3.10;1.40;;;;;;;12.17;70.93;95795.59;5046366;28;20222;-60
2023/04/15 11:37:56;;;;;;;1.70;1.60;;;;;;;12.12;73.77;95797.09;5066068;28;20208;-59